Aérodrome :
LOGIN :

S'inscrire | Disclaimer

   EN    FR    IT 

 










Légende :    VFR   VFR Marginal   IFR   IFR Intensif   IFR Très Intensif
Visi : 
Plafond : 
>= 8 km
>= 3000ft
5 à 8 km
1000 à 3000 ft
1500m à 5 km
500 à 1000 ft
800 à 1500m
200 à 500 ft
< 800m
< 200 ft
Symboles :   Orages  Brouillard  Fortes neiges  Fortes précipitations  Vent > 20 kt
SIGMETs :   Divers  Orages  Givrage  Turbulence  Onde Orograph.  Cendres Volcan.






- Altitude de l'aérodrome : 1302 ft
- Code IATA : GNB


LFLS - Grenoble / St. Geoirs

DERNIER METAR :
  • 140400Z AUTO 09007KT CAVOK 16/15 Q1017 NOSIG

METARs EXPIRÉS :
  • 140330Z AUTO 09006KT CAVOK 16/16 Q1017 NOSIG
  • 140300Z AUTO 08006KT CAVOK 17/16 Q1017
  • 140230Z AUTO 07006KT CAVOK 17/16 Q1017
  • 140200Z AUTO 08007KT CAVOK 17/16 Q1017
  • 140130Z AUTO 10006KT 9999 FEW074 17/16 Q1017

TAF TAF LFLS
Valide du 14 à 03h jusqu'au 15 à 03h UTC


140200Z 1403/1503 09006KT 9999 BKN033
BECMG 1406/1408 36007KT
BECMG 1412/1414 SCT050
BECMG 1415/1417 CAVOK
ATIS : +33 4 76 65 55 89



MET'MAP, la Météo Aéronautique d'un coup d'oeil ! - Copyright ORBIFLY Décembre 2007 - Disclaimer

ORBIFLY MET'MAP TEAM :

Programmation & Développement : Alexandra Zaïnal
Sur une idée originale de : Baudouin d'Aumeries
Assistance à la programmation : Marc-Olivier Méhu
Soutien technique & logistique : Manuel Goepfert

Contact : metmap@orbifly.com




SOURCES & CREDITS :

   NOAA